createdAt,value
2023-05-12T00:02:00.545Z,216.48
2023-05-12T00:04:28.559Z,245.52
2023-05-12T00:06:56.586Z,249.88
2023-05-12T00:09:24.543Z,238.25
2023-05-12T00:11:54.076Z,214.98
2023-05-12T00:14:22.494Z,227.93
2023-05-12T00:16:52.066Z,210.38
2023-05-12T00:19:21.107Z,236.43
2023-05-12T00:21:49.282Z,239.70
2023-05-12T00:24:17.279Z,234.95
2023-05-12T00:26:45.290Z,230.30
2023-05-12T00:29:15.627Z,240.63
2023-05-12T00:31:43.590Z,230.25
2023-05-12T00:34:11.609Z,225.03
2023-05-12T00:36:39.759Z,230.38
2023-05-12T00:39:07.697Z,222.95
2023-05-12T00:41:35.614Z,217.18
2023-05-12T00:44:03.580Z,226.07
2023-05-12T00:46:33.006Z,216.52
2023-05-12T00:49:01.170Z,214.52
2023-05-12T00:51:29.609Z,212.45
2023-05-12T00:53:58.145Z,210.73
2023-05-12T00:56:26.899Z,223.90
2023-05-12T00:58:54.901Z,223.88
2023-05-12T01:01:23.296Z,190.77
2023-05-12T01:03:52.737Z,237.52
2023-05-12T01:06:28.892Z,221.18
2023-05-12T01:08:58.594Z,238.35
2023-05-12T01:11:26.733Z,229.98
2023-05-12T01:13:54.693Z,226.57
2023-05-12T01:16:27.356Z,237.40
2023-05-12T01:18:57.990Z,224.00
2023-05-12T01:21:26.265Z,216.70
2023-05-12T01:24:00.906Z,216.43
2023-05-12T01:26:32.332Z,204.52
2023-05-12T01:29:02.412Z,215.80
2023-05-12T01:31:31.180Z,225.70
2023-05-12T01:33:59.207Z,180.77
2023-05-12T01:36:27.167Z,199.00
2023-05-12T01:38:55.449Z,166.13
2023-05-12T01:41:23.438Z,188.10
2023-05-12T01:43:52.745Z,194.38
2023-05-12T01:46:21.055Z,170.90
2023-05-12T01:48:49.042Z,218.50
2023-05-12T01:51:18.073Z,188.27
2023-05-12T01:53:46.087Z,174.70
2023-05-12T01:56:14.093Z,184.30
2023-05-12T01:58:42.089Z,180.93
2023-05-12T02:01:11.407Z,189.65
2023-05-12T02:03:39.555Z,200.30
2023-05-12T02:06:07.655Z,185.02
2023-05-12T02:08:36.081Z,188.30
2023-05-12T02:11:07.358Z,187.17
2023-05-12T02:13:35.764Z,198.40
2023-05-12T02:16:03.990Z,195.98
2023-05-12T02:18:33.442Z,205.88
2023-05-12T02:21:01.505Z,199.32
2023-05-12T02:23:29.473Z,170.90
2023-05-12T02:25:57.554Z,187.20
2023-05-12T02:28:25.584Z,182.60
2023-05-12T02:30:54.406Z,194.07
2023-05-12T02:33:22.983Z,191.67
2023-05-12T02:35:52.516Z,185.77
2023-05-12T02:38:20.559Z,178.27
2023-05-12T02:40:48.583Z,185.23
2023-05-12T02:43:16.768Z,169.20
2023-05-12T02:45:44.818Z,167.30
2023-05-12T02:48:12.793Z,193.93
2023-05-12T02:50:40.752Z,183.43
2023-05-12T02:53:10.233Z,190.40
2023-05-12T02:55:38.306Z,198.87
2023-05-12T02:58:06.276Z,190.73
2023-05-12T03:00:34.256Z,189.00
2023-05-12T03:03:02.283Z,184.13
2023-05-12T03:05:30.678Z,136.07
2023-05-12T03:07:59.052Z,109.93
2023-05-12T03:10:28.402Z,113.70
2023-05-12T03:12:56.401Z,102.80
2023-05-12T03:15:24.359Z,94.57
2023-05-12T03:17:52.390Z,102.47
2023-05-12T03:20:20.787Z,112.50
2023-05-12T03:22:48.976Z,115.10
2023-05-12T03:25:16.938Z,113.93
2023-05-12T03:27:46.325Z,115.40
2023-05-12T03:30:15.167Z,104.60
2023-05-12T03:32:44.302Z,97.30
2023-05-12T03:35:12.392Z,85.50
2023-05-12T03:37:40.448Z,90.23
2023-05-12T03:40:09.606Z,85.67
2023-05-12T03:42:37.561Z,83.60
2023-05-12T03:45:08.088Z,83.47
2023-05-12T03:47:37.947Z,94.07
2023-05-12T03:50:07.453Z,84.27
2023-05-12T03:52:38.345Z,91.13
2023-05-12T03:55:07.283Z,96.63
2023-05-12T03:57:36.439Z,101.60
2023-05-12T04:00:06.887Z,92.57
2023-05-12T04:02:34.886Z,88.45
2023-05-12T04:05:02.971Z,95.40
2023-05-12T04:07:30.959Z,106.30
2023-05-12T04:09:59.155Z,118.53
2023-05-12T04:12:27.098Z,106.47
2023-05-12T04:14:55.462Z,108.03
2023-05-12T04:17:24.832Z,133.30
2023-05-12T04:19:53.436Z,122.27
2023-05-12T04:22:22.900Z,130.93
2023-05-12T04:24:52.809Z,139.57
2023-05-12T04:27:20.822Z,150.30
2023-05-12T04:29:48.832Z,151.98
2023-05-12T04:32:16.867Z,143.97
2023-05-12T04:34:46.327Z,141.70
2023-05-12T04:37:14.286Z,143.47
2023-05-12T04:39:42.245Z,137.23
2023-05-12T04:42:10.267Z,119.70
2023-05-12T04:44:38.239Z,128.17
2023-05-12T04:47:06.574Z,129.00
2023-05-12T04:49:34.555Z,134.67
2023-05-12T04:52:05.359Z,123.20
2023-05-12T04:54:33.517Z,139.07
2023-05-12T04:57:01.511Z,152.63
2023-05-12T04:59:30.534Z,147.33
2023-05-12T05:01:58.584Z,142.17
2023-05-12T05:04:27.796Z,141.90
2023-05-12T05:06:56.131Z,148.50
2023-05-12T05:09:25.464Z,139.97
2023-05-12T05:11:53.461Z,159.83
2023-05-12T05:14:21.414Z,164.50
2023-05-12T05:16:49.448Z,183.70
2023-05-12T05:19:23.426Z,179.50
2023-05-12T05:22:03.329Z,199.25
2023-05-12T05:24:32.967Z,200.90
2023-05-12T05:27:01.197Z,199.88
2023-05-12T05:29:29.189Z,209.02
2023-05-12T05:31:57.167Z,214.23
2023-05-12T05:34:25.194Z,214.20
2023-05-12T05:36:53.186Z,219.82
2023-05-12T05:39:21.139Z,216.67
2023-05-12T05:41:50.473Z,203.45
2023-05-12T05:44:18.446Z,228.07
2023-05-12T05:46:46.528Z,238.30
2023-05-12T05:49:14.541Z,236.57
2023-05-12T05:51:42.458Z,214.13
2023-05-12T05:54:10.591Z,201.38
2023-05-12T05:56:38.568Z,230.90
2023-05-12T05:59:07.953Z,234.35
2023-05-12T06:01:35.986Z,231.10
2023-05-12T06:04:04.155Z,237.80
2023-05-12T06:06:32.622Z,234.25
2023-05-12T06:09:00.636Z,228.68
2023-05-12T06:11:28.704Z,206.13
2023-05-12T06:13:56.952Z,242.13
2023-05-12T06:16:26.262Z,249.60
2023-05-12T06:18:54.294Z,245.55
2023-05-12T06:21:22.334Z,252.55
2023-05-12T06:23:51.551Z,245.43
2023-05-12T06:26:19.639Z,222.30
2023-05-12T06:28:47.689Z,233.48
2023-05-12T06:31:15.685Z,230.90
2023-05-12T06:33:45.182Z,212.10
2023-05-12T06:36:13.198Z,241.75
2023-05-12T06:38:41.176Z,247.95
2023-05-12T06:41:09.143Z,266.20
2023-05-12T06:43:37.117Z,266.38
2023-05-12T06:46:05.201Z,223.57
2023-05-12T06:48:33.212Z,221.63
2023-05-12T06:51:02.617Z,212.05
2023-05-12T06:53:30.916Z,228.13
2023-05-12T06:55:58.955Z,234.40
2023-05-12T06:58:26.894Z,251.85
2023-05-12T07:00:54.890Z,248.32
2023-05-12T07:03:23.271Z,245.77
2023-05-12T07:05:51.459Z,275.92
2023-05-12T07:08:20.756Z,283.83
2023-05-12T07:10:48.820Z,274.83
2023-05-12T07:13:16.794Z,258.20
2023-05-12T07:15:44.876Z,261.15
2023-05-12T07:18:13.738Z,269.48
2023-05-12T07:20:41.716Z,277.23
2023-05-12T07:23:10.439Z,306.75
2023-05-12T07:25:40.345Z,310.05
2023-05-12T07:28:08.341Z,292.02
2023-05-12T07:30:37.618Z,305.02
2023-05-12T07:33:05.672Z,316.73
2023-05-12T07:35:33.768Z,314.08
2023-05-12T07:38:03.254Z,333.20
2023-05-12T07:40:31.306Z,346.35
2023-05-12T07:43:00.836Z,322.90
2023-05-12T07:45:28.837Z,321.55
2023-05-12T07:47:56.862Z,342.10
2023-05-12T07:50:24.889Z,333.40
2023-05-12T07:52:54.419Z,339.95
2023-05-12T07:55:23.777Z,344.48
2023-05-12T07:57:51.925Z,347.77
2023-05-12T08:00:21.948Z,349.23
2023-05-12T08:02:50.092Z,357.40
2023-05-12T08:05:18.711Z,377.25
2023-05-12T08:07:47.212Z,391.08
2023-05-12T08:10:15.357Z,395.27
2023-05-12T08:12:43.820Z,410.23
2023-05-12T08:15:12.408Z,409.30
2023-05-12T08:17:41.904Z,405.88
2023-05-12T08:20:10.910Z,415.08
2023-05-12T08:22:39.930Z,423.88
2023-05-12T08:25:17.027Z,413.13
2023-05-12T08:27:45.475Z,401.50
2023-05-12T08:30:14.236Z,410.77
2023-05-12T08:32:43.617Z,420.05
2023-05-12T08:35:11.625Z,422.20
2023-05-12T08:37:39.897Z,433.48
2023-05-12T08:40:17.596Z,424.00
2023-05-12T08:42:50.356Z,390.70
2023-05-12T08:45:19.631Z,386.00
2023-05-12T08:47:49.807Z,393.13
2023-05-12T08:50:19.273Z,417.92
2023-05-12T08:52:47.250Z,404.35
2023-05-12T08:55:15.850Z,409.85
2023-05-12T08:57:48.269Z,391.77
2023-05-12T09:00:17.802Z,404.40
2023-05-12T09:02:53.200Z,402.88
2023-05-12T09:05:25.009Z,421.38
2023-05-12T09:07:54.818Z,392.65
2023-05-12T09:10:33.693Z,391.08
2023-05-12T09:13:05.604Z,396.42
2023-05-12T09:15:37.392Z,403.15
2023-05-12T09:18:05.872Z,398.88
2023-05-12T09:20:35.634Z,402.63
2023-05-12T09:23:17.063Z,407.67
2023-05-12T09:25:46.925Z,408.98
2023-05-12T09:28:15.910Z,412.60
2023-05-12T09:30:43.890Z,413.50
2023-05-12T09:33:13.752Z,426.42
2023-05-12T09:35:44.369Z,425.23
2023-05-12T09:38:15.922Z,373.45
2023-05-12T09:40:44.126Z,456.33
2023-05-12T09:43:14.539Z,452.77
2023-05-12T09:45:44.139Z,427.00
2023-05-12T09:48:14.027Z,438.95
2023-05-12T09:50:48.767Z,395.05
2023-05-12T09:53:18.376Z,430.67
2023-05-12T09:55:47.798Z,387.85
2023-05-12T09:58:18.019Z,384.98
2023-05-12T10:03:21.931Z,378.13
2023-05-12T10:05:54.616Z,388.52
2023-05-12T10:08:28.745Z,433.85
2023-05-12T10:11:00.326Z,390.08
2023-05-12T10:13:28.553Z,380.92
2023-05-12T10:15:58.719Z,385.63
2023-05-12T10:18:27.405Z,378.25
2023-05-12T10:20:59.051Z,382.73
2023-05-12T10:23:28.420Z,392.85
2023-05-12T10:25:58.623Z,359.77
2023-05-12T10:28:26.713Z,393.83
2023-05-12T10:30:55.151Z,400.60
2023-05-12T10:33:23.440Z,382.70
2023-05-12T10:35:53.515Z,381.45
2023-05-12T10:38:22.913Z,385.42
2023-05-12T10:40:53.835Z,364.95
2023-05-12T10:43:27.617Z,354.60
2023-05-12T10:46:15.995Z,336.83
2023-05-12T10:48:53.718Z,285.83
2023-05-12T10:51:23.212Z,292.55
2023-05-12T10:53:59.128Z,293.42
2023-05-12T10:56:28.576Z,275.05
2023-05-12T10:59:18.671Z,284.65
2023-05-12T11:02:05.381Z,295.38
2023-05-12T11:04:44.910Z,300.23
2023-05-12T11:07:16.358Z,286.42
2023-05-12T11:09:56.662Z,279.98
2023-05-12T11:12:27.478Z,288.40
2023-05-12T11:14:55.720Z,275.83
2023-05-12T11:17:23.747Z,311.90
2023-05-12T11:19:52.999Z,293.30
2023-05-12T11:22:22.761Z,315.67
2023-05-12T11:24:53.483Z,341.63
2023-05-12T11:27:24.466Z,349.88
2023-05-12T11:29:59.969Z,374.40
2023-05-12T11:32:29.449Z,350.15
2023-05-12T11:34:58.558Z,365.08
2023-05-12T11:37:26.705Z,395.88
2023-05-12T11:39:56.010Z,375.70
2023-05-12T11:42:25.827Z,408.67
2023-05-12T11:44:55.514Z,383.65
2023-05-12T11:47:23.674Z,378.90
2023-05-12T11:49:52.907Z,404.63
2023-05-12T11:52:22.166Z,397.45
2023-05-12T11:54:51.637Z,400.60
2023-05-12T11:57:31.640Z,415.35
2023-05-12T12:00:01.785Z,409.92
2023-05-12T12:02:30.043Z,403.92
2023-05-12T12:04:58.271Z,394.10
2023-05-12T12:07:33.102Z,420.55
2023-05-12T12:10:11.698Z,416.13
2023-05-12T12:12:41.357Z,495.02
2023-05-12T12:15:10.337Z,534.28
2023-05-12T12:17:38.376Z,513.47
2023-05-12T12:20:08.134Z,492.90
2023-05-12T12:22:36.353Z,470.88
2023-05-12T12:25:04.790Z,442.63
2023-05-12T12:27:32.944Z,442.90
2023-05-12T12:30:02.457Z,442.25
2023-05-12T12:32:30.447Z,473.17
2023-05-12T12:35:00.064Z,443.52
2023-05-12T12:37:28.107Z,474.67
2023-05-12T12:39:56.232Z,461.10
2023-05-12T12:42:24.257Z,468.08
2023-05-12T12:44:52.494Z,468.48
2023-05-12T12:47:21.861Z,461.42
2023-05-12T12:49:49.829Z,455.30
2023-05-12T12:52:18.140Z,421.90
2023-05-12T12:54:46.099Z,456.35
2023-05-12T12:57:14.129Z,447.15
2023-05-12T12:59:42.088Z,475.33
2023-05-12T13:02:10.113Z,438.45
2023-05-12T13:04:39.500Z,498.75
2023-05-12T13:07:08.123Z,475.23
2023-05-12T13:09:36.145Z,469.38
2023-05-12T13:12:04.478Z,486.63
2023-05-12T13:14:32.567Z,469.20
2023-05-12T13:17:00.614Z,486.85
2023-05-12T13:19:28.800Z,458.17
2023-05-12T13:21:58.138Z,469.55
2023-05-12T13:24:26.246Z,463.20
2023-05-12T13:26:54.192Z,462.40
2023-05-12T13:29:22.222Z,457.10
2023-05-12T13:31:50.327Z,479.98
2023-05-12T13:34:18.324Z,462.13
2023-05-12T13:36:46.639Z,485.27
2023-05-12T13:39:17.313Z,521.85
2023-05-12T13:41:47.124Z,517.35
2023-05-12T13:44:15.149Z,476.10
2023-05-12T13:46:43.266Z,466.23
2023-05-12T13:49:11.299Z,493.92
2023-05-12T13:51:39.275Z,496.13
2023-05-12T13:54:07.262Z,491.83
2023-05-12T13:56:37.897Z,520.63
2023-05-12T13:59:06.047Z,461.98
2023-05-12T14:01:34.031Z,479.15
2023-05-12T14:04:02.062Z,533.30
2023-05-12T14:06:30.222Z,459.35
2023-05-12T14:08:58.204Z,437.10
2023-05-12T14:11:26.260Z,470.33
2023-05-12T14:13:55.668Z,441.70
2023-05-12T14:16:23.681Z,395.83
2023-05-12T14:18:51.806Z,397.38
2023-05-12T14:21:19.985Z,398.15
2023-05-12T14:23:49.339Z,389.85
2023-05-12T14:26:19.311Z,399.48
2023-05-12T14:28:47.594Z,401.75
2023-05-12T14:31:17.324Z,371.25
2023-05-12T14:33:45.585Z,405.70
2023-05-12T14:36:13.555Z,396.05
2023-05-12T14:38:41.551Z,384.73
2023-05-12T14:41:09.600Z,399.42
2023-05-12T14:43:38.294Z,381.35
2023-05-12T14:46:08.594Z,392.98
2023-05-12T14:48:38.297Z,406.63
2023-05-12T14:51:06.844Z,403.38
2023-05-12T14:53:34.892Z,406.55
2023-05-12T14:56:03.101Z,442.67
2023-05-12T14:58:33.087Z,460.73
2023-05-12T15:01:02.660Z,421.30
2023-05-12T15:03:30.956Z,464.38
2023-05-12T15:08:31.213Z,401.95
2023-05-12T15:10:59.201Z,451.63
2023-05-12T15:13:27.260Z,474.83
2023-05-12T15:15:56.625Z,471.90
2023-05-12T15:18:25.237Z,409.65
2023-05-12T15:20:53.407Z,463.90
2023-05-12T15:23:23.047Z,495.17
2023-05-12T15:25:51.313Z,457.88
2023-05-12T15:28:19.396Z,459.88
2023-05-12T15:30:55.928Z,426.75
2023-05-12T15:33:24.308Z,476.88
2023-05-12T15:35:52.370Z,460.63
2023-05-12T15:38:21.762Z,457.90
2023-05-12T15:40:49.890Z,452.02
2023-05-12T15:43:18.074Z,486.65
2023-05-12T15:45:46.320Z,493.35
2023-05-12T15:48:14.389Z,448.92
2023-05-12T15:50:42.385Z,474.42
2023-05-12T15:53:10.423Z,517.00
2023-05-12T15:55:40.376Z,491.17
2023-05-12T15:58:09.083Z,486.58
2023-05-12T16:00:37.378Z,484.70
2023-05-12T16:03:05.661Z,564.83
2023-05-12T16:05:37.679Z,597.17
2023-05-12T16:08:05.720Z,590.55
2023-05-12T16:10:34.110Z,603.80
2023-05-12T16:13:03.522Z,623.47
2023-05-12T16:15:32.772Z,603.05
2023-05-12T16:18:00.783Z,633.03
2023-05-12T16:20:29.015Z,606.13
2023-05-12T16:22:56.993Z,617.58
2023-05-12T16:25:25.267Z,651.40
2023-05-12T16:27:53.255Z,651.20
2023-05-12T16:30:22.656Z,646.05
2023-05-12T16:32:51.842Z,687.20
2023-05-12T16:35:20.152Z,705.58
2023-05-12T16:37:48.290Z,662.95
2023-05-12T16:40:16.507Z,680.58
2023-05-12T16:42:44.579Z,629.70
2023-05-12T16:45:13.124Z,627.95
2023-05-12T16:47:42.599Z,664.30
2023-05-12T16:50:11.625Z,637.05
2023-05-12T16:52:39.609Z,607.05
2023-05-12T16:55:08.468Z,601.75
2023-05-12T16:57:36.550Z,683.15
2023-05-12T17:00:06.579Z,708.20
2023-05-12T17:02:34.698Z,758.92
2023-05-12T17:05:05.370Z,785.33
2023-05-12T17:07:35.143Z,816.03
2023-05-12T17:10:03.657Z,809.15
2023-05-12T17:12:32.105Z,833.25
2023-05-12T17:15:07.472Z,816.35
2023-05-12T17:17:36.649Z,814.92
2023-05-12T17:20:07.504Z,821.40
2023-05-12T17:22:41.218Z,785.70
2023-05-12T17:25:09.763Z,783.03
2023-05-12T17:27:37.737Z,783.13
2023-05-12T17:30:06.718Z,762.83
2023-05-12T17:32:34.691Z,787.25
2023-05-12T17:35:02.769Z,751.55
2023-05-12T17:37:32.136Z,706.83
2023-05-12T17:40:00.933Z,680.17
2023-05-12T17:42:31.276Z,624.30
2023-05-12T17:44:59.591Z,623.40
2023-05-12T17:47:27.648Z,542.50
2023-05-12T17:49:55.729Z,527.67
2023-05-12T17:52:23.699Z,519.30
2023-05-12T17:54:57.250Z,493.25
2023-05-12T17:57:25.352Z,496.42
2023-05-12T17:59:53.365Z,507.60
2023-05-12T18:02:21.398Z,483.55
2023-05-12T18:04:49.997Z,441.50
2023-05-12T18:07:18.212Z,424.67
2023-05-12T18:09:46.209Z,469.50
2023-05-12T18:12:16.077Z,372.30
2023-05-12T18:14:44.004Z,343.20
2023-05-12T18:17:13.238Z,373.52
2023-05-12T18:19:41.226Z,343.65
2023-05-12T18:22:09.203Z,302.88
2023-05-12T18:24:37.229Z,290.75
2023-05-12T18:27:06.565Z,294.90
2023-05-12T18:29:36.142Z,258.33
2023-05-12T18:32:05.395Z,237.27
2023-05-12T18:34:33.377Z,246.07
2023-05-12T18:37:01.768Z,228.88
2023-05-12T18:39:29.839Z,241.82
2023-05-12T18:41:59.144Z,234.48
2023-05-12T18:44:27.156Z,227.52
2023-05-12T18:46:56.635Z,197.10
2023-05-12T18:49:25.250Z,204.77
2023-05-12T18:51:53.190Z,182.48
2023-05-12T18:54:21.172Z,159.80
2023-05-12T18:56:50.712Z,185.23
2023-05-12T18:59:18.748Z,177.70
2023-05-12T19:01:47.293Z,170.73
2023-05-12T19:04:16.762Z,163.77
2023-05-12T19:06:44.769Z,121.00
2023-05-12T19:09:12.707Z,110.85
2023-05-12T19:11:40.663Z,100.95
2023-05-12T19:14:08.611Z,90.43
2023-05-12T19:16:38.194Z,72.63
2023-05-12T19:19:06.332Z,71.82
2023-05-12T19:21:35.717Z,97.47
2023-05-12T19:24:03.900Z,100.75
2023-05-12T19:26:31.892Z,69.15
2023-05-12T19:31:38.262Z,47.63
2023-05-12T19:34:07.034Z,50.35
2023-05-12T19:36:36.910Z,56.85
2023-05-12T19:39:04.998Z,42.88
2023-05-12T19:41:32.978Z,41.60
2023-05-12T19:44:00.964Z,44.80
2023-05-12T19:46:29.997Z,46.53
2023-05-12T19:48:57.999Z,33.85
2023-05-12T19:51:26.018Z,35.22
2023-05-12T19:53:55.354Z,34.95
2023-05-12T19:56:23.331Z,28.45
2023-05-12T19:58:52.280Z,30.08
2023-05-12T20:01:20.351Z,23.33
2023-05-12T20:03:48.487Z,24.42
2023-05-12T20:06:16.607Z,23.25
2023-05-12T20:08:44.570Z,22.60
2023-05-12T20:11:13.906Z,23.02
2023-05-12T20:13:41.833Z,25.75
2023-05-12T20:16:10.624Z,22.65
2023-05-12T20:18:38.635Z,18.88
2023-05-12T20:21:06.724Z,28.00
2023-05-12T20:23:34.755Z,22.70
2023-05-12T20:26:02.772Z,19.40
2023-05-12T20:28:32.432Z,17.55
2023-05-12T20:31:00.601Z,16.73
2023-05-12T20:33:28.720Z,16.25
2023-05-12T20:35:56.778Z,20.20
2023-05-12T20:38:25.397Z,24.75
2023-05-12T20:40:53.379Z,22.48
2023-05-12T20:43:21.372Z,14.73
2023-05-12T20:45:50.697Z,19.33
2023-05-12T20:48:18.755Z,16.23
2023-05-12T20:50:46.748Z,14.48
2023-05-12T20:53:15.081Z,16.65
2023-05-12T20:55:43.953Z,16.75
2023-05-12T20:58:12.181Z,13.88
2023-05-12T21:00:40.124Z,14.70
2023-05-12T21:03:14.398Z,11.27
2023-05-12T21:05:47.485Z,13.45
2023-05-12T21:08:15.805Z,13.13
2023-05-12T21:10:43.809Z,14.10
2023-05-12T21:13:11.755Z,15.65
2023-05-12T21:15:39.736Z,13.95
2023-05-12T21:18:09.065Z,10.85
2023-05-12T21:20:37.539Z,13.98
2023-05-12T21:23:05.511Z,14.23
2023-05-12T21:25:33.435Z,12.95
2023-05-12T21:28:01.534Z,9.38
2023-05-12T21:30:29.540Z,11.43
2023-05-12T21:32:57.579Z,9.75
2023-05-12T21:35:28.108Z,10.02
2023-05-12T21:37:56.074Z,15.90
2023-05-12T21:40:24.034Z,13.15
2023-05-12T21:42:51.976Z,9.35
2023-05-12T21:45:21.521Z,13.07
2023-05-12T21:47:51.218Z,12.82
2023-05-12T21:50:22.947Z,7.75
2023-05-12T21:52:52.481Z,8.60
2023-05-12T21:55:20.446Z,7.40
2023-05-12T21:57:48.406Z,9.90
2023-05-12T22:00:20.047Z,9.20
2023-05-12T22:02:48.744Z,9.70
2023-05-12T22:05:16.796Z,10.27
2023-05-12T22:07:44.737Z,15.18
2023-05-12T22:10:14.095Z,14.35
2023-05-12T22:12:42.411Z,14.93
2023-05-12T22:15:11.029Z,14.55
2023-05-12T22:17:39.013Z,16.88
2023-05-12T22:20:09.131Z,13.02
2023-05-12T22:22:37.123Z,14.05
2023-05-12T22:25:05.595Z,14.02
2023-05-12T22:27:34.965Z,15.13
2023-05-12T22:30:03.059Z,17.98
2023-05-12T22:32:31.177Z,16.55
2023-05-12T22:34:59.163Z,16.83
2023-05-12T22:37:27.285Z,21.10
2023-05-12T22:39:55.307Z,17.15
2023-05-12T22:42:23.732Z,18.88
2023-05-12T22:44:53.100Z,23.20
2023-05-12T22:47:21.117Z,11.52
2023-05-12T22:49:49.117Z,13.18
2023-05-12T22:52:17.358Z,9.88
2023-05-12T22:54:45.323Z,11.32
2023-05-12T22:57:13.260Z,12.75
2023-05-12T22:59:41.213Z,9.15
2023-05-12T23:02:10.540Z,12.57
2023-05-12T23:04:38.475Z,8.65
2023-05-12T23:07:09.012Z,9.63
2023-05-12T23:09:37.490Z,10.32
2023-05-12T23:12:05.958Z,9.73
2023-05-12T23:14:33.979Z,9.18
2023-05-12T23:17:02.040Z,9.95
2023-05-12T23:19:31.437Z,9.98
2023-05-12T23:22:00.627Z,10.93
2023-05-12T23:24:28.560Z,13.35
2023-05-12T23:26:56.544Z,13.05
2023-05-12T23:29:24.484Z,18.45
2023-05-12T23:31:52.505Z,18.00
2023-05-12T23:34:20.504Z,19.80
2023-05-12T23:36:49.820Z,17.58
2023-05-12T23:39:17.825Z,25.67
2023-05-12T23:41:45.864Z,26.90
2023-05-12T23:44:13.860Z,19.92
2023-05-12T23:46:41.883Z,20.67
2023-05-12T23:49:09.927Z,15.90
2023-05-12T23:51:37.970Z,23.85
2023-05-12T23:54:07.399Z,19.95
2023-05-12T23:56:35.780Z,22.98
2023-05-12T23:59:03.870Z,19.48
